Time;durP1;ratioP1;P1;durP2;ratioP2;P2;SDS_P1;SDS_P2;PMS_P1;PMS_P2;Temp;Humidity;BMP_temperature;BMP_pressure;BME280_temperature;BME280_humidity;BME280_pressure;Samples;Min_cycle;Max_cycle;Signal;HPM_P1;HPM_P2
2022/12/04 00:01:44;;;;;;;;;;;;;;;9.63;49.18;101101.63;4975893;27;118619;-64
2022/12/04 00:04:10;;;;;;;;;;;;;;;9.63;49.45;101103.50;4975694;27;127937;-64
2022/12/04 00:06:36;;;;;;;;;;;;;;;9.63;49.48;101103.50;4964477;27;126850;-64
2022/12/04 00:09:02;;;;;;;;;;;;;;;9.62;49.34;101102.69;4947465;27;128581;-64
2022/12/04 00:11:29;;;;;;;;;;;;;;;9.62;49.36;101107.25;4961760;28;117459;-64
2022/12/04 00:13:55;;;;;;;;;;;;;;;9.61;49.34;101108.31;4974943;27;124832;-64
2022/12/04 00:16:22;;;;;;;;;;;;;;;9.61;49.57;101108.31;4974951;27;127131;-66
2022/12/04 00:18:48;;;;;;;;;;;;;;;9.62;49.06;101109.94;4976385;27;120965;-65
2022/12/04 00:21:15;;;;;;;;;;;;;;;9.61;49.76;101100.25;4975676;27;97821;-65
2022/12/04 00:23:41;;;;;;;;;;;;;;;9.60;49.55;101104.81;4973178;27;111509;-64
2022/12/04 00:26:12;;;;;;;;;;;;;;;9.60;49.20;101107.50;4972027;27;99621;-64
2022/12/04 00:28:38;;;;;;;;;;;;;;;9.60;49.56;101104.81;4979389;27;98335;-66
2022/12/04 00:31:05;;;;;;;;;;;;;;;9.60;49.34;101104.81;4976432;27;118153;-64
2022/12/04 00:33:31;;;;;;;;;;;;;;;9.60;49.49;101104.81;4977698;27;114931;-64
2022/12/04 00:36:01;;;;;;;;;;;;;;;9.60;49.39;101102.13;4976286;27;128935;-63
2022/12/04 00:38:27;;;;;;;;;;;;;;;9.59;49.41;101100.50;4942202;28;116887;-65
2022/12/04 00:40:53;;;;;;;;;;;;;;;9.59;49.69;101104.00;4970963;27;117948;-64
2022/12/04 00:43:19;;;;;;;;;;;;;;;9.58;49.49;101099.66;4975123;27;98608;-64
2022/12/04 00:45:45;;;;;;;;;;;;;;;9.58;49.42;101099.66;4974373;27;127269;-66
2022/12/04 00:48:11;;;;;;;;;;;;;;;9.57;49.48;101100.72;4974888;27;125620;-64
2022/12/04 00:50:37;;;;;;;;;;;;;;;9.59;49.30;101095.13;4977083;27;107816;-66
2022/12/04 00:53:03;;;;;;;;;;;;;;;9.59;48.99;101089.72;4975030;27;126106;-64
2022/12/04 00:55:29;;;;;;;;;;;;;;;9.59;49.31;101089.72;4978808;27;128228;-65
2022/12/04 00:57:55;;;;;;;;;;;;;;;9.58;49.14;101091.59;4965748;27;127839;-65
2022/12/04 01:00:21;;;;;;;;;;;;;;;9.58;49.39;101093.47;4980340;27;115543;-64
2022/12/04 01:02:47;;;;;;;;;;;;;;;9.58;49.48;101088.88;4963442;28;127659;-64
2022/12/04 01:05:13;;;;;;;;;;;;;;;9.59;49.27;101092.44;4978168;27;99320;-64
2022/12/04 01:07:38;;;;;;;;;;;;;;;9.58;49.05;101086.19;4972852;27;127971;-65
2022/12/04 01:10:06;;;;;;;;;;;;;;;9.60;49.16;101091.34;4981783;27;115247;-63
2022/12/04 01:12:32;;;;;;;;;;;;;;;9.59;49.79;101089.72;4958789;28;97968;-66
2022/12/04 01:14:58;;;;;;;;;;;;;;;9.57;49.37;101084.56;4977586;27;99309;-64
2022/12/04 01:17:24;;;;;;;;;;;;;;;9.58;49.26;101091.59;4960980;28;98045;-65
2022/12/04 01:19:50;;;;;;;;;;;;;;;9.59;49.72;101081.66;4979209;27;114235;-66
2022/12/04 01:22:16;;;;;;;;;;;;;;;9.58;49.56;101075.44;4979206;27;128210;-66
2022/12/04 01:24:42;;;;;;;;;;;;;;;9.59;49.40;101081.66;4973974;27;127669;-64
2022/12/04 01:27:08;;;;;;;;;;;;;;;9.60;49.33;101088.66;4968972;27;127138;-64
2022/12/04 01:29:34;;;;;;;;;;;;;;;9.59;49.61;101079.78;4979079;27;116761;-64
2022/12/04 01:32:00;;;;;;;;;;;;;;;9.60;49.62;101085.97;4976673;27;127343;-66
2022/12/04 01:34:26;;;;;;;;;;;;;;;9.59;49.46;101081.66;4965317;28;124611;-64
2022/12/04 01:36:51;;;;;;;;;;;;;;;9.59;49.22;101082.47;4966052;27;126297;-65
2022/12/04 01:39:17;;;;;;;;;;;;;;;9.59;49.09;101076.28;4974068;27;118448;-64
2022/12/04 01:41:43;;;;;;;;;;;;;;;9.59;49.71;101077.09;4975653;27;126297;-65
2022/12/04 01:44:19;;;;;;;;;;;;;;;9.59;48.91;101074.41;4977818;27;129045;-64
2022/12/04 01:46:46;;;;;;;;;;;;;;;9.58;49.31;101059.28;4967651;27;101306;-64
2022/12/04 01:49:16;;;;;;;;;;;;;;;9.59;49.65;101068.19;4961956;27;98075;-64
2022/12/04 01:51:45;;;;;;;;;;;;;;;9.59;49.34;101055.56;4960587;27;126966;-64
2022/12/04 01:54:21;;;;;;;;;;;;;;;9.59;49.55;101054.75;4944409;27;123473;-64
2022/12/04 01:56:52;;;;;;;;;;;;;;;9.60;49.16;101056.38;4968557;27;98684;-64
2022/12/04 01:59:20;;;;;;;;;;;;;;;9.59;49.33;101050.16;4975722;27;97724;-64
2022/12/04 02:01:56;;;;;;;;;;;;;;;9.59;49.05;101050.16;4962382;28;104316;-64
2022/12/04 02:04:21;;;;;;;;;;;;;;;9.59;49.54;101052.84;4934400;28;100629;-64
2022/12/04 02:06:47;;;;;;;;;;;;;;;9.60;49.32;101050.97;4964877;27;98098;-64
2022/12/04 02:09:13;;;;;;;;;;;;;;;9.59;49.55;101054.75;4968412;27;115423;-64
2022/12/04 02:12:07;;;;;;;;;;;;;;;9.58;49.59;101032.38;4973924;27;98751;-65
2022/12/04 02:14:51;;;;;;;;;;;;;;;9.59;49.48;101046.66;4940178;28;98300;-64
2022/12/04 02:17:27;;;;;;;;;;;;;;;9.59;49.84;101041.28;4962610;27;97980;-64
2022/12/04 02:20:09;;;;;;;;;;;;;;;9.60;49.63;101037.53;4975747;27;98116;-64
2022/12/04 02:23:14;;;;;;;;;;;;;;;9.60;49.00;101029.44;4955098;28;127993;-64
2022/12/04 02:25:46;;;;;;;;;;;;;;;9.59;49.00;101028.63;4948420;28;114842;-66
2022/12/04 02:28:24;;;;;;;;;;;;;;;9.59;49.06;101031.31;4952654;28;127497;-64
2022/12/04 02:30:51;;;;;;;;;;;;;;;9.61;49.27;101027.56;4981184;27;113253;-66
2022/12/04 02:33:42;;;;;;;;;;;;;;;9.59;49.52;101025.94;4967414;27;98245;-65
2022/12/04 02:36:30;;;;;;;;;;;;;;;9.59;49.36;101025.94;4971433;27;99545;-66
2022/12/04 02:39:06;;;;;;;;;;;;;;;9.59;49.33;101019.75;4956522;27;99828;-66
2022/12/04 02:41:38;;;;;;;;;;;;;;;9.59;48.97;101023.25;4962263;28;118394;-64
2022/12/04 02:44:34;;;;;;;;;;;;;;;9.59;49.58;101022.44;4964407;27;98446;-65
2022/12/04 02:47:03;;;;;;;;;;;;;;;9.59;49.06;101020.56;4963402;27;98819;-64
2022/12/04 02:49:43;;;;;;;;;;;;;;;9.59;49.34;101019.75;4962182;28;97994;-64
2022/12/04 02:52:10;;;;;;;;;;;;;;;9.58;49.43;101021.59;4951183;27;98231;-65
2022/12/04 02:54:39;;;;;;;;;;;;;;;9.59;49.16;101027.81;4960654;27;125759;-66
2022/12/04 02:57:06;;;;;;;;;;;;;;;9.59;49.20;101025.13;4941937;28;114679;-65
2022/12/04 02:59:34;;;;;;;;;;;;;;;9.58;49.63;101026.16;4971736;27;113816;-64
2022/12/04 03:02:05;;;;;;;;;;;;;;;9.57;49.63;101024.56;4962009;27;105114;-65
2022/12/04 03:04:31;;;;;;;;;;;;;;;9.58;49.68;101020.78;4963698;28;107943;-64
2022/12/04 03:07:30;;;;;;;;;;;;;;;9.58;49.40;101023.47;4948030;27;98882;-64
2022/12/04 03:10:00;;;;;;;;;;;;;;;9.57;49.81;101014.59;4945784;27;97888;-66
2022/12/04 03:12:41;;;;;;;;;;;;;;;9.58;49.41;101018.09;4962803;28;100147;-66
2022/12/04 03:15:36;;;;;;;;;;;;;;;9.57;48.94;101001.13;4961568;27;125201;-65
2022/12/04 03:18:15;;;;;;;;;;;;;;;9.57;49.23;101017.28;4974331;27;127455;-66
2022/12/04 03:20:41;;;;;;;;;;;;;;;9.57;49.84;101011.91;4979029;27;97937;-64
2022/12/04 03:23:29;;;;;;;;;;;;;;;9.57;49.69;101008.41;4946229;27;118461;-64
2022/12/04 03:26:05;;;;;;;;;;;;;;;9.56;49.64;100993.31;4975515;27;102930;-64
2022/12/04 03:28:53;;;;;;;;;;;;;;;9.57;49.02;100992.25;4939826;28;128684;-65
2022/12/04 03:31:26;;;;;;;;;;;;;;;9.56;49.36;100991.44;4970487;27;97880;-64
2022/12/04 03:33:52;;;;;;;;;;;;;;;9.57;49.31;100997.63;4962954;27;113619;-64
2022/12/04 03:36:28;;;;;;;;;;;;;;;9.56;49.07;100996.81;4968546;27;98500;-66
2022/12/04 03:39:11;;;;;;;;;;;;;;;9.56;49.27;101009.47;4974100;27;118291;-64
2022/12/04 03:41:47;;;;;;;;;;;;;;;9.56;49.32;101010.28;4947855;28;98135;-65
2022/12/04 03:44:37;;;;;;;;;;;;;;;9.56;49.90;101012.97;4976429;27;97919;-66
2022/12/04 03:47:24;;;;;;;;;;;;;;;9.56;49.49;101014.84;4938626;27;127335;-65
2022/12/04 03:50:24;;;;;;;;;;;;;;;9.56;49.22;101009.47;4975688;27;128221;-63
2022/12/04 03:52:57;;;;;;;;;;;;;;;9.56;49.68;101012.16;4951630;28;98144;-65
2022/12/04 03:56:02;;;;;;;;;;;;;;;9.54;49.50;101014.28;4963243;27;97896;-65
2022/12/04 03:58:29;;;;;;;;;;;;;;;9.53;49.74;101018.84;4965958;27;98495;-66
2022/12/04 04:00:55;;;;;;;;;;;;;;;9.51;49.12;101025.53;4963439;27;128298;-66
2022/12/04 04:03:25;;;;;;;;;;;;;;;9.49;48.86;101016.91;4978057;27;122467;-67
2022/12/04 04:05:54;;;;;;;;;;;;;;;9.47;49.08;101027.06;4959169;28;97943;-65
2022/12/04 04:08:25;;;;;;;;;;;;;;;9.45;48.96;101019.25;4946873;28;98427;-64
2022/12/04 04:10:52;;;;;;;;;;;;;;;9.44;49.34;101022.22;4960065;27;98917;-64
2022/12/04 04:24:40;;;;;;;;;;;;;;;9.38;49.32;101015.91;4976944;27;97950;-65
2022/12/04 04:27:06;;;;;;;;;;;;;;;9.37;49.31;101008.09;4962554;27;103272;-64
2022/12/04 04:29:32;;;;;;;;;;;;;;;9.37;49.55;101014.28;4978625;27;124443;-65
2022/12/04 04:32:11;;;;;;;;;;;;;;;9.37;49.92;101016.19;4979764;27;123219;-66
2022/12/04 04:35:22;;;;;;;;;;;;;;;9.36;49.08;101020.75;4964415;28;98158;-64
2022/12/04 04:37:56;;;;;;;;;;;;;;;9.37;49.12;101013.50;4931511;28;98321;-64
2022/12/04 04:40:45;;;;;;;;;;;;;;;9.36;49.17;101019.94;4967180;27;98942;-65
2022/12/04 04:43:23;;;;;;;;;;;;;;;9.35;49.29;101016.41;4964367;27;127975;-64
2022/12/04 04:46:10;;;;;;;;;;;;;;;9.36;49.32;101020.75;4979272;27;124380;-64
2022/12/04 04:48:42;;;;;;;;;;;;;;;9.34;49.30;101022.84;4959814;28;115599;-64
2022/12/04 04:51:08;;;;;;;;;;;;;;;9.34;49.12;101012.91;4947320;27;118797;-66
2022/12/04 04:53:46;;;;;;;;;;;;;;;9.34;49.20;101012.91;4945714;28;129094;-65
2022/12/04 04:56:12;;;;;;;;;;;;;;;9.35;49.51;101008.34;4958059;28;126889;-67
2022/12/04 04:58:38;;;;;;;;;;;;;;;9.36;49.04;101009.19;4958322;28;117540;-64
2022/12/04 05:01:08;;;;;;;;;;;;;;;9.36;49.58;101006.47;4979016;27;128113;-65
2022/12/04 05:03:34;;;;;;;;;;;;;;;9.37;49.23;101011.59;4944771;28;101057;-66
2022/12/04 05:06:00;;;;;;;;;;;;;;;9.38;49.48;101017.81;4969260;27;127363;-64
2022/12/04 05:08:26;;;;;;;;;;;;;;;9.38;49.34;101015.91;4964250;27;118983;-65
2022/12/04 05:10:52;;;;;;;;;;;;;;;9.40;49.34;101015.69;4982051;27;119493;-64
2022/12/04 05:13:18;;;;;;;;;;;;;;;9.40;49.89;101013.81;4978796;27;126923;-64
2022/12/04 05:15:44;;;;;;;;;;;;;;;9.41;49.70;101014.63;4975754;27;98084;-66
2022/12/04 05:18:10;;;;;;;;;;;;;;;9.42;49.39;101016.25;4974552;27;117497;-66
2022/12/04 05:20:39;;;;;;;;;;;;;;;9.42;49.22;101000.91;4978031;27;111985;-65
2022/12/04 05:23:06;;;;;;;;;;;;;;;9.44;49.20;101000.69;4980203;27;99292;-64
2022/12/04 05:25:32;;;;;;;;;;;;;;;9.44;49.77;101012.25;4976813;27;98011;-64
2022/12/04 05:27:58;;;;;;;;;;;;;;;9.47;49.28;101008.25;4965785;27;115253;-66
2022/12/04 05:30:24;;;;;;;;;;;;;;;9.47;49.68;101010.94;4979756;27;99183;-64
2022/12/04 05:32:50;;;;;;;;;;;;;;;9.47;49.17;101011.78;4963456;28;128189;-66
2022/12/04 05:35:15;;;;;;;;;;;;;;;9.49;49.67;101003.44;4975242;27;99050;-64
2022/12/04 05:37:41;;;;;;;;;;;;;;;9.49;49.49;101001.56;4960083;28;115382;-64
2022/12/04 05:40:08;;;;;;;;;;;;;;;9.51;49.74;101004.84;4980000;27;105593;-66
2022/12/04 05:42:34;;;;;;;;;;;;;;;9.50;49.10;100999.69;4960670;28;98648;-65
2022/12/04 05:45:00;;;;;;;;;;;;;;;9.53;48.93;100997.31;4978738;27;98072;-65
2022/12/04 05:47:26;;;;;;;;;;;;;;;9.54;49.23;100995.44;4970430;27;107792;-64
2022/12/04 05:49:52;;;;;;;;;;;;;;;9.55;49.28;100997.09;4977299;27;127253;-64
2022/12/04 05:52:18;;;;;;;;;;;;;;;9.56;49.47;100994.13;4978499;27;122411;-64
2022/12/04 05:54:43;;;;;;;;;;;;;;;9.56;49.23;100996.81;4977188;27;127243;-66
2022/12/04 05:57:10;;;;;;;;;;;;;;;9.57;49.47;100997.63;4967659;27;118609;-64
2022/12/04 05:59:35;;;;;;;;;;;;;;;9.58;49.60;100985.81;4978904;27;98970;-64
2022/12/04 06:02:01;;;;;;;;;;;;;;;9.59;49.71;100992.84;4981675;27;99050;-64
2022/12/04 06:04:27;;;;;;;;;;;;;;;9.58;49.15;100983.09;4973395;27;126086;-66
2022/12/04 06:06:53;;;;;;;;;;;;;;;9.59;49.07;100988.25;4971374;27;116012;-66
2022/12/04 06:09:19;;;;;;;;;;;;;;;9.60;49.01;100983.69;4976108;27;98733;-64
2022/12/04 06:11:45;;;;;;;;;;;;;;;9.59;49.08;100982.06;4978603;27;128708;-66
2022/12/04 06:14:13;;;;;;;;;;;;;;;9.62;49.38;100980.72;4981037;27;127540;-64
2022/12/04 06:16:40;;;;;;;;;;;;;;;9.62;49.69;100975.34;4970668;27;114845;-65
2022/12/04 06:19:08;;;;;;;;;;;;;;;9.63;49.39;100985.06;4980636;27;98153;-64
2022/12/04 06:21:35;;;;;;;;;;;;;;;9.62;49.55;100978.84;4979643;27;98736;-65
2022/12/04 06:24:01;;;;;;;;;;;;;;;9.63;49.04;100967.03;4974980;27;125865;-65
2022/12/04 06:26:27;;;;;;;;;;;;;;;9.64;49.71;100965.16;4971815;27;97892;-66
2022/12/04 06:28:55;;;;;;;;;;;;;;;9.63;49.40;100963.50;4979100;27;102246;-66
2022/12/04 06:31:21;;;;;;;;;;;;;;;9.63;49.17;100961.66;4984122;27;98811;-65
2022/12/04 06:33:47;;;;;;;;;;;;;;;9.62;49.52;100960.00;4977406;27;97917;-66
2022/12/04 06:36:15;;;;;;;;;;;;;;;9.65;49.47;100966.78;4971561;27;117651;-64
2022/12/04 06:38:41;;;;;;;;;;;;;;;9.64;49.47;100965.97;4976409;27;98237;-64
2022/12/04 06:41:09;;;;;;;;;;;;;;;9.64;49.28;100965.97;4978083;27;98912;-65
2022/12/04 06:43:35;;;;;;;;;;;;;;;9.64;49.73;100971.38;4979357;27;99485;-65
2022/12/04 06:46:02;;;;;;;;;;;;;;;9.64;49.49;100967.84;4978672;27;98057;-64
2022/12/04 06:48:28;;;;;;;;;;;;;;;9.65;49.21;100982.94;4977738;27;129703;-65
2022/12/04 06:50:59;;;;;;;;;;;;;;;9.64;49.86;100975.94;4978705;27;128149;-64
2022/12/04 06:53:26;;;;;;;;;;;;;;;9.64;49.18;100976.75;4957677;27;123771;-64
2022/12/04 06:55:52;;;;;;;;;;;;;;;9.65;49.13;100981.06;4972298;27;98196;-64
2022/12/04 06:58:18;;;;;;;;;;;;;;;9.64;49.76;100987.50;4969184;27;98296;-65
2022/12/04 07:00:44;;;;;;;;;;;;;;;9.64;49.07;100994.78;4974873;27;127983;-65
2022/12/04 07:03:10;;;;;;;;;;;;;;;9.65;49.41;100996.41;4981000;27;126344;-66
2022/12/04 07:05:36;;;;;;;;;;;;;;;9.65;49.70;100999.91;4972100;27;116184;-65
2022/12/04 07:08:01;;;;;;;;;;;;;;;9.65;49.73;101007.97;4964997;27;127778;-65
2022/12/04 07:10:27;;;;;;;;;;;;;;;9.66;49.76;100998.03;4976701;27;128983;-64
2022/12/04 07:12:53;;;;;;;;;;;;;;;9.66;49.46;101001.53;4978789;27;124498;-64
2022/12/04 07:15:19;;;;;;;;;;;;;;;9.66;49.40;101004.22;4942514;27;117865;-67
2022/12/04 07:17:45;;;;;;;;;;;;;;;9.68;49.22;100996.72;4962935;27;127354;-66
2022/12/04 07:20:11;;;;;;;;;;;;;;;9.74;49.41;100997.59;4973519;27;121958;-65
2022/12/04 07:22:37;;;;;;;;;;;;;;;9.80;49.08;101000.09;4973701;27;118801;-64
2022/12/04 07:25:03;;;;;;;;;;;;;;;9.90;49.37;101004.81;4959439;27;117591;-64
2022/12/04 07:27:30;;;;;;;;;;;;;;;9.95;49.34;101009.47;4966440;28;112854;-65
2022/12/04 07:29:56;;;;;;;;;;;;;;;10.00;49.37;101007.63;4959229;28;121879;-65
2022/12/04 07:32:22;;;;;;;;;;;;;;;10.06;49.03;101003.13;4974366;27;127478;-64
2022/12/04 07:34:48;;;;;;;;;;;;;;;10.09;49.57;101003.44;4969765;27;98129;-65
2022/12/04 07:37:14;;;;;;;;;;;;;;;10.14;49.14;101002.69;4965464;27;129182;-65
2022/12/04 07:39:39;;;;;;;;;;;;;;;10.17;49.65;101010.25;4975579;27;116794;-65
2022/12/04 07:42:05;;;;;;;;;;;;;;;10.21;49.61;100995.22;4965184;27;125287;-65
2022/12/04 07:44:31;;;;;;;;;;;;;;;10.23;49.56;101003.88;4972828;27;116032;-64
2022/12/04 07:46:57;;;;;;;;;;;;;;;10.27;49.80;101017.69;4970129;27;129162;-67
2022/12/04 07:49:23;;;;;;;;;;;;;;;10.29;49.55;101010.16;4972712;27;128668;-66
2022/12/04 07:51:49;;;;;;;;;;;;;;;10.29;49.83;101002.06;4970280;27;126811;-65
2022/12/04 07:54:15;;;;;;;;;;;;;;;10.31;49.30;101014.25;4974969;27;101404;-66
2022/12/04 07:56:41;;;;;;;;;;;;;;;10.31;49.58;101016.13;4957917;27;112229;-65
2022/12/04 07:59:07;;;;;;;;;;;;;;;10.31;49.35;101011.53;4975389;27;128183;-64
2022/12/04 08:01:33;;;;;;;;;;;;;;;10.34;49.26;101018.31;4976481;27;127685;-65
2022/12/04 08:03:59;;;;;;;;;;;;;;;10.36;49.44;101007.28;4976715;27;117782;-64
2022/12/04 08:06:26;;;;;;;;;;;;;;;10.35;49.33;101011.84;4969210;27;100401;-65
2022/12/04 08:08:52;;;;;;;;;;;;;;;10.37;49.72;101017.78;4975248;27;119700;-67
2022/12/04 08:11:22;;;;;;;;;;;;;;;10.36;49.51;101013.47;4963073;27;98272;-64
2022/12/04 08:13:55;;;;;;;;;;;;;;;10.38;49.27;101005.16;4974103;27;103977;-65
2022/12/04 08:16:21;;;;;;;;;;;;;;;10.38;49.62;101005.97;4966640;27;99146;-66
2022/12/04 08:18:47;;;;;;;;;;;;;;;10.39;49.27;101004.91;4972435;27;126281;-64
2022/12/04 08:21:19;;;;;;;;;;;;;;;10.40;49.56;101003.81;4973296;27;98521;-64
2022/12/04 08:23:45;;;;;;;;;;;;;;;10.38;49.14;101000.56;4975709;27;98068;-65
2022/12/04 08:26:11;;;;;;;;;;;;;;;10.42;49.60;101007.09;4968876;27;128084;-64
2022/12/04 08:28:37;;;;;;;;;;;;;;;10.42;49.32;101012.47;4971579;27;98556;-65
2022/12/04 08:31:14;;;;;;;;;;;;;;;10.42;49.70;101007.09;4977081;27;106795;-65
2022/12/04 08:33:42;;;;;;;;;;;;;;;10.45;49.25;101008.44;4975262;27;101235;-65
2022/12/04 08:36:09;;;;;;;;;;;;;;;10.46;49.21;101004.72;4967588;27;98774;-66
2022/12/04 08:38:35;;;;;;;;;;;;;;;10.46;49.69;101012.78;4974357;27;98910;-67
2022/12/04 08:41:01;;;;;;;;;;;;;;;10.48;49.57;101008.75;4084385;27;10000926;-66
2022/12/04 08:43:27;;;;;;;;;;;;;;;10.49;49.19;101013.09;4957161;27;98388;-66
2022/12/04 08:45:57;;;;;;;;;;;;;;;10.51;49.45;101010.94;4972250;27;98385;-65
2022/12/04 08:48:23;;;;;;;;;;;;;;;10.53;49.46;101008.00;4973047;27;98246;-65
2022/12/04 08:50:49;;;;;;;;;;;;;;;10.53;49.43;101013.38;4955504;28;98436;-65
2022/12/04 08:53:15;;;;;;;;;;;;;;;10.56;49.14;101010.19;4976277;27;106409;-65
2022/12/04 08:55:41;;;;;;;;;;;;;;;10.58;49.34;101013.47;4973979;27;98299;-66
2022/12/04 08:58:07;;;;;;;;;;;;;;;10.60;49.31;101019.41;4976638;27;118282;-65
2022/12/04 09:00:33;;;;;;;;;;;;;;;10.61;49.31;101012.97;4974917;27;128471;-65
2022/12/04 09:02:59;;;;;;;;;;;;;;;10.63;49.08;101016.19;4980287;27;128157;-66
2022/12/04 09:05:25;;;;;;;;;;;;;;;10.65;48.90;101015.94;4977706;27;127799;-65
2022/12/04 09:07:51;;;;;;;;;;;;;;;10.66;49.16;101014.88;4954873;28;117044;-65
2022/12/04 09:10:16;;;;;;;;;;;;;;;10.67;49.19;101003.84;4979451;27;127391;-66
2022/12/04 09:12:42;;;;;;;;;;;;;;;10.70;49.08;101006.03;4976936;27;127477;-65
2022/12/04 09:15:09;;;;;;;;;;;;;;;10.72;49.09;101011.16;4943143;28;104738;-66
2022/12/04 09:17:35;;;;;;;;;;;;;;;10.73;49.44;101002.03;4961276;27;110079;-64
2022/12/04 09:20:02;;;;;;;;;;;;;;;10.75;49.24;101007.94;4977691;27;99284;-65
2022/12/04 09:22:28;;;;;;;;;;;;;;;10.77;49.33;101003.94;4979829;27;99899;-65
2022/12/04 09:24:54;;;;;;;;;;;;;;;10.79;49.29;101001.78;4975730;27;97996;-64
2022/12/04 09:27:20;;;;;;;;;;;;;;;10.81;49.22;100998.84;4961719;27;98070;-65
2022/12/04 09:29:46;;;;;;;;;;;;;;;10.82;49.00;100995.88;4973210;27;129071;-66
2022/12/04 09:32:12;;;;;;;;;;;;;;;10.84;48.96;101001.03;4962347;28;99121;-66
2022/12/04 09:34:38;;;;;;;;;;;;;;;10.84;48.92;100998.31;4954152;27;127765;-65
2022/12/04 09:37:04;;;;;;;;;;;;;;;10.86;49.27;100992.69;4976683;27;97953;-64
2022/12/04 09:39:30;;;;;;;;;;;;;;;10.87;49.30;100991.63;4958571;27;128442;-65
2022/12/04 09:42:02;;;;;;;;;;;;;;;10.89;49.07;100993.00;4977213;27;127892;-64
2022/12/04 09:44:34;;;;;;;;;;;;;;;10.90;49.37;100988.41;4926627;27;98538;-64
2022/12/04 09:47:15;;;;;;;;;;;;;;;10.90;48.99;100994.63;4946849;28;98049;-66
2022/12/04 09:49:45;;;;;;;;;;;;;;;10.91;49.17;100984.63;4959769;27;99574;-66
2022/12/04 09:52:34;;;;;;;;;;;;;;;10.96;49.13;100992.75;4960189;27;98367;-65
2022/12/04 09:55:01;;;;;;;;;;;;;;;10.97;49.09;100987.13;4961293;27;115555;-66
2022/12/04 09:57:44;;;;;;;;;;;;;;;10.97;49.16;100984.44;4955050;27;105249;-65
2022/12/04 10:00:15;;;;;;;;;;;;;;;10.97;49.34;100981.72;4940533;28;119054;-64
2022/12/04 10:02:43;;;;;;;;;;;;;;;11.00;49.18;100983.09;4970261;27;112343;-65
2022/12/04 10:05:20;;;;;;;;;;;;;;;11.00;49.08;100972.28;4958015;28;98380;-66
2022/12/04 10:08:06;;;;;;;;;;;;;;;10.99;49.29;100976.88;4071796;28;10000859;-65
2022/12/04 10:10:39;;;;;;;;;;;;;;;11.01;49.09;100976.63;4973879;27;132517;-66
2022/12/04 10:13:38;;;;;;;;;;;;;;;11.00;48.89;100986.63;4957500;28;101237;-64
2022/12/04 10:16:10;;;;;;;;;;;;;;;10.99;49.42;100979.56;4960427;27;98212;-64
2022/12/04 10:19:02;;;;;;;;;;;;;;;11.01;49.14;100987.44;4953746;27;98908;-65
2022/12/04 10:21:39;;;;;;;;;;;;;;;11.00;49.29;100981.22;4975600;27;98014;-66
2022/12/04 10:24:26;;;;;;;;;;;;;;;11.01;49.21;100988.25;4958348;28;97886;-65
2022/12/04 10:26:52;;;;;;;;;;;;;;;11.00;49.30;100983.91;4973127;27;98484;-66
2022/12/04 10:29:21;;;;;;;;;;;;;;;11.00;49.06;100989.31;4944476;28;128296;-65
2022/12/04 10:31:48;;;;;;;;;;;;;;;11.00;49.47;100980.38;4946786;27;98434;-65
2022/12/04 10:34:17;;;;;;;;;;;;;;;11.00;49.47;100973.13;4926447;28;98908;-65
2022/12/04 10:36:47;;;;;;;;;;;;;;;10.98;49.26;100969.88;4972306;27;123917;-65
2022/12/04 10:39:35;;;;;;;;;;;;;;;11.01;49.24;100960.44;4943303;28;125664;-65
2022/12/04 10:42:21;;;;;;;;;;;;;;;11.02;49.45;100965.56;4958229;28;98486;-65
2022/12/04 10:44:46;;;;;;;;;;;;;;;11.03;49.23;100952.91;4974785;27;99431;-66
2022/12/04 10:47:12;;;;;;;;;;;;;;;11.06;49.49;100955.91;4970297;27;127872;-65
2022/12/04 10:49:38;;;;;;;;;;;;;;;11.06;49.35;100958.59;4957948;27;128307;-66
2022/12/04 10:52:05;;;;;;;;;;;;;;;11.09;49.13;100951.06;4976552;27;98094;-65
2022/12/04 10:54:33;;;;;;;;;;;;;;;11.12;49.31;100961.31;4974322;27;97910;-66
2022/12/04 10:57:04;;;;;;;;;;;;;;;11.14;49.38;100954.59;4973228;27;119469;-64
2022/12/04 10:59:30;;;;;;;;;;;;;;;11.18;49.18;100944.09;4975067;27;116602;-64
2022/12/04 11:02:04;;;;;;;;;;;;;;;11.18;49.07;100946.81;4958940;28;122561;-66
2022/12/04 11:04:30;;;;;;;;;;;;;;;11.19;49.14;100943.03;4959521;27;98183;-64
2022/12/04 11:07:04;;;;;;;;;;;;;;;11.22;49.14;100942.50;4976848;27;98670;-64
2022/12/04 11:09:30;;;;;;;;;;;;;;;11.23;49.07;100934.16;4976185;27;117669;-64
2022/12/04 11:12:05;;;;;;;;;;;;;;;11.22;49.14;100932.53;4956854;28;110654;-67
2022/12/04 11:14:31;;;;;;;;;;;;;;;11.22;49.24;100924.44;4975419;27;97956;-66
2022/12/04 11:17:02;;;;;;;;;;;;;;;11.22;49.22;100934.41;4957075;28;128079;-66
2022/12/04 11:19:30;;;;;;;;;;;;;;;11.20;49.25;100929.28;4954192;27;102657;-65
2022/12/04 11:22:02;;;;;;;;;;;;;;;11.21;49.26;100930.09;4973158;27;98306;-66
2022/12/04 11:24:53;;;;;;;;;;;;;;;11.22;49.26;100929.03;4961014;27;98058;-64
2022/12/04 11:27:23;;;;;;;;;;;;;;;11.21;49.23;100916.59;4949532;28;123427;-64
2022/12/04 11:29:49;;;;;;;;;;;;;;;11.20;49.16;100925.75;4954882;28;104872;-66
2022/12/04 11:32:26;;;;;;;;;;;;;;;11.18;49.03;100934.13;4973800;27;98218;-66
2022/12/04 11:34:53;;;;;;;;;;;;;;;11.17;49.40;100932.50;4973784;27;97924;-66
2022/12/04 11:37:21;;;;;;;;;;;;;;;11.17;49.32;100932.50;4974136;27;97961;-64
2022/12/04 11:39:47;;;;;;;;;;;;;;;11.17;49.29;100939.78;4960640;27;98357;-64
2022/12/04 11:42:23;;;;;;;;;;;;;;;11.17;49.20;100934.41;4975048;27;128103;-66
2022/12/04 11:44:59;;;;;;;;;;;;;;;11.18;49.16;100939.53;4975287;27;98153;-64
2022/12/04 11:47:27;;;;;;;;;;;;;;;11.18;49.40;100939.53;4975847;27;98918;-65
2022/12/04 11:50:00;;;;;;;;;;;;;;;11.18;49.48;100942.22;4974354;27;98387;-64
2022/12/04 11:52:47;;;;;;;;;;;;;;;11.19;49.39;100941.13;4977829;27;98957;-64
2022/12/04 11:55:25;;;;;;;;;;;;;;;11.20;49.30;100932.00;4976356;27;98074;-64
2022/12/04 11:58:05;;;;;;;;;;;;;;;11.24;49.21;100930.41;4975469;27;98288;-67
2022/12/04 12:00:31;;;;;;;;;;;;;;;11.28;49.10;100925.28;4942613;27;125338;-64
2022/12/04 12:03:25;;;;;;;;;;;;;;;11.31;49.24;100914.75;4972845;27;98498;-64
2022/12/04 12:06:10;;;;;;;;;;;;;;;11.31;49.13;100919.34;4961453;27;98747;-66
2022/12/04 12:09:11;;;;;;;;;;;;;;;11.35;49.22;100914.25;4958985;27;99648;-64
2022/12/04 12:11:45;;;;;;;;;;;;;;;11.34;49.19;100916.13;4933003;27;99603;-66
2022/12/04 12:14:35;;;;;;;;;;;;;;;11.38;49.05;100919.13;4975566;27;125845;-65
2022/12/04 12:17:07;;;;;;;;;;;;;;;11.38;49.19;100911.84;4971693;27;97916;-66
2022/12/04 12:19:56;;;;;;;;;;;;;;;11.39;49.11;100913.47;4957422;27;127008;-64
2022/12/04 12:22:51;;;;;;;;;;;;;;;11.43;49.14;100901.06;4958506;27;105499;-66
2022/12/04 12:25:47;;;;;;;;;;;;;;;11.45;49.02;100901.63;4952278;27;98236;-67
2022/12/04 12:28:13;;;;;;;;;;;;;;;11.47;49.14;100917.56;4962368;27;97983;-64
2022/12/04 12:30:51;;;;;;;;;;;;;;;11.46;49.04;100915.94;4978831;27;98747;-64
2022/12/04 12:33:25;;;;;;;;;;;;;;;11.45;48.95;100912.44;4962501;28;126976;-64
2022/12/04 12:36:05;;;;;;;;;;;;;;;11.46;49.30;100907.84;4960509;28;98223;-64
2022/12/04 12:38:51;;;;;;;;;;;;;;;11.48;49.10;100903.00;4952494;27;97860;-64
2022/12/04 12:41:20;;;;;;;;;;;;;;;11.48;49.25;100901.09;4977114;27;100443;-64
2022/12/04 12:43:59;;;;;;;;;;;;;;;11.49;49.16;100899.22;4942713;28;127032;-66
2022/12/04 12:46:35;;;;;;;;;;;;;;;11.48;49.26;100890.31;4960153;27;115856;-64
2022/12/04 12:49:16;;;;;;;;;;;;;;;11.47;49.14;100891.38;4976122;27;104385;-66
2022/12/04 12:51:46;;;;;;;;;;;;;;;11.48;49.33;100887.59;4963024;27;98908;-65
2022/12/04 12:54:23;;;;;;;;;;;;;;;11.47;49.25;100885.97;4944187;28;126669;-67
2022/12/04 12:56:52;;;;;;;;;;;;;;;11.48;49.21;100879.50;4977134;27;98407;-65
2022/12/04 12:59:24;;;;;;;;;;;;;;;11.48;49.11;100878.72;4956929;28;116158;-64
2022/12/04 13:01:57;;;;;;;;;;;;;;;11.47;49.13;100871.66;4947123;28;98602;-65
2022/12/04 13:04:39;;;;;;;;;;;;;;;11.45;49.18;100871.13;4960199;27;99325;-67
2022/12/04 13:07:19;;;;;;;;;;;;;;;11.45;49.27;100874.63;4978445;27;115450;-66